createdAt,value
2017-10-29T00:01:04.669Z,97.19
2017-10-29T00:03:33.116Z,97.46
2017-10-29T00:06:00.657Z,97.42
2017-10-29T00:08:28.180Z,97.08
2017-10-29T00:10:55.713Z,97.08
2017-10-29T00:13:23.251Z,97.18
2017-10-29T00:15:50.780Z,97.25
2017-10-29T00:18:18.304Z,96.86
2017-10-29T00:20:45.890Z,96.70
2017-10-29T00:23:13.412Z,96.56
2017-10-29T00:25:40.945Z,96.51
2017-10-29T00:28:08.474Z,95.93
2017-10-29T00:30:35.996Z,95.47
2017-10-29T00:33:03.521Z,95.61
2017-10-29T00:35:31.873Z,95.45
2017-10-29T00:37:59.398Z,95.23
2017-10-29T00:40:26.934Z,95.29
2017-10-29T00:42:54.566Z,95.30
2017-10-29T00:45:22.097Z,95.42
2017-10-29T00:47:49.672Z,95.67
2017-10-29T00:50:17.221Z,96.18
2017-10-29T00:52:45.323Z,96.38
2017-10-29T00:55:12.849Z,96.22
2017-10-29T00:57:40.381Z,96.12
2017-10-29T01:00:07.914Z,95.87
2017-10-29T01:02:35.436Z,95.38
2017-10-29T01:05:03.547Z,95.98
2017-10-29T01:07:32.135Z,95.93
2017-10-29T01:09:59.660Z,95.99
2017-10-29T01:12:27.194Z,95.67
2017-10-29T01:14:54.721Z,95.92
2017-10-29T01:17:22.243Z,95.67
2017-10-29T01:19:49.828Z,95.45
2017-10-29T01:22:17.357Z,95.48
2017-10-29T01:24:44.929Z,95.07
2017-10-29T01:27:12.453Z,94.95
2017-10-29T01:29:39.985Z,95.32
2017-10-29T01:32:07.514Z,95.76
2017-10-29T01:34:35.041Z,96.21
2017-10-29T01:37:02.609Z,96.52
2017-10-29T01:39:30.208Z,96.62
2017-10-29T01:41:57.777Z,96.38
2017-10-29T01:44:25.394Z,96.46
2017-10-29T01:46:52.919Z,96.59
2017-10-29T01:49:20.548Z,96.70
2017-10-29T01:51:48.078Z,96.40
2017-10-29T01:54:15.605Z,96.08
2017-10-29T01:56:43.129Z,96.03
2017-10-29T01:59:10.675Z,96.33
2017-10-29T02:01:38.203Z,95.84
2017-10-29T02:04:05.739Z,96.15
2017-10-29T02:06:33.954Z,96.33
2017-10-29T02:09:02.696Z,96.54
2017-10-29T02:11:30.213Z,96.68
2017-10-29T02:13:57.746Z,96.85
2017-10-29T02:16:26.279Z,97.12
2017-10-29T02:18:53.843Z,97.48
2017-10-29T02:21:22.275Z,97.88
2017-10-29T02:23:49.812Z,97.83
2017-10-29T02:26:18.242Z,97.78
2017-10-29T02:28:45.896Z,97.48
2017-10-29T02:31:13.426Z,97.40
2017-10-29T02:33:40.952Z,97.29
2017-10-29T02:36:09.257Z,97.40
2017-10-29T02:38:36.796Z,97.24
2017-10-29T02:41:05.259Z,97.23
2017-10-29T02:43:34.008Z,97.50
2017-10-29T02:46:02.800Z,97.60
2017-10-29T02:48:30.333Z,98.10
2017-10-29T02:50:58.756Z,98.84
2017-10-29T02:53:26.281Z,98.61
2017-10-29T02:55:53.814Z,98.25
2017-10-29T02:58:21.339Z,98.19
2017-10-29T03:00:48.856Z,97.59
2017-10-29T03:03:17.272Z,97.14
2017-10-29T03:05:44.827Z,96.61
2017-10-29T03:08:12.347Z,95.68
2017-10-29T03:10:40.705Z,94.15
2017-10-29T03:13:09.108Z,95.12
2017-10-29T03:15:36.629Z,94.69
2017-10-29T03:18:05.880Z,95.56
2017-10-29T03:20:34.336Z,95.54
2017-10-29T03:23:02.320Z,95.53
2017-10-29T03:25:29.851Z,95.50
2017-10-29T03:27:57.381Z,95.26
2017-10-29T03:30:24.914Z,95.46
2017-10-29T03:32:53.228Z,96.15
2017-10-29T03:35:20.753Z,95.57
2017-10-29T03:37:48.284Z,95.73
2017-10-29T03:40:16.735Z,95.99
2017-10-29T03:42:44.255Z,95.46
2017-10-29T03:45:11.780Z,95.93
2017-10-29T03:47:40.349Z,94.84
2017-10-29T03:50:07.878Z,95.49
2017-10-29T03:52:35.400Z,93.83
2017-10-29T03:55:03.927Z,92.72
2017-10-29T03:57:31.449Z,91.48
2017-10-29T03:59:58.981Z,91.04
2017-10-29T04:02:26.514Z,86.77
2017-10-29T04:04:54.040Z,87.64
2017-10-29T04:07:21.658Z,87.85
2017-10-29T04:09:49.189Z,88.46
2017-10-29T04:12:17.669Z,90.86
2017-10-29T04:14:45.195Z,90.66
2017-10-29T04:17:12.715Z,90.95
2017-10-29T04:19:40.244Z,90.54
2017-10-29T04:22:07.766Z,91.28
2017-10-29T04:24:35.318Z,90.53
2017-10-29T04:27:02.837Z,91.43
2017-10-29T04:29:30.365Z,91.05
2017-10-29T04:31:58.697Z,90.57
2017-10-29T04:34:26.776Z,91.09
2017-10-29T04:36:54.327Z,88.18
2017-10-29T04:39:21.847Z,88.25
2017-10-29T04:41:49.367Z,85.27
2017-10-29T04:44:16.889Z,84.56
2017-10-29T04:46:44.412Z,85.20
2017-10-29T04:49:11.935Z,81.96
2017-10-29T04:51:39.457Z,83.20
2017-10-29T04:54:06.989Z,78.82
2017-10-29T04:56:34.566Z,76.97
2017-10-29T04:59:02.877Z,74.90
2017-10-29T05:01:30.440Z,75.72
2017-10-29T05:03:58.876Z,71.48
2017-10-29T05:06:26.436Z,70.78
2017-10-29T05:08:55.200Z,71.96
2017-10-29T05:11:25.258Z,70.35
2017-10-29T05:13:54.175Z,68.55
2017-10-29T05:16:22.507Z,68.62
2017-10-29T05:18:50.851Z,67.42
2017-10-29T05:21:19.302Z,68.84
2017-10-29T05:23:47.927Z,70.84
2017-10-29T05:26:16.356Z,70.62
2017-10-29T05:28:43.897Z,72.05
2017-10-29T05:31:11.420Z,73.17
2017-10-29T05:33:39.719Z,74.58
2017-10-29T05:36:07.248Z,74.50
2017-10-29T05:38:35.724Z,77.03
2017-10-29T05:41:03.249Z,75.68
2017-10-29T05:43:30.772Z,76.22
2017-10-29T05:45:59.194Z,76.66
2017-10-29T05:48:26.748Z,75.42
2017-10-29T05:50:55.188Z,74.02
2017-10-29T05:53:23.608Z,74.03
2017-10-29T05:55:51.990Z,72.95
2017-10-29T05:58:20.341Z,72.70
2017-10-29T06:00:48.708Z,73.00
2017-10-29T06:03:16.346Z,73.22
2017-10-29T06:05:43.876Z,72.14
2017-10-29T06:08:12.157Z,71.36
2017-10-29T06:10:40.492Z,71.58
2017-10-29T06:13:08.935Z,71.56
2017-10-29T06:15:37.377Z,71.99
2017-10-29T06:18:05.826Z,71.71
2017-10-29T06:20:33.350Z,72.98
2017-10-29T06:23:00.870Z,75.01
2017-10-29T06:25:29.305Z,77.47
2017-10-29T06:27:57.349Z,78.04
2017-10-29T06:30:25.865Z,79.14
2017-10-29T06:32:54.182Z,78.16
2017-10-29T06:35:22.498Z,77.77
2017-10-29T06:37:50.959Z,76.44
2017-10-29T06:40:20.340Z,77.81
2017-10-29T06:42:47.884Z,78.75
